Time;durP1;ratioP1;P1;durP2;ratioP2;P2;SDS_P1;SDS_P2;PMS_P1;PMS_P2;Temp;Humidity;BMP_temperature;BMP_pressure;BME280_temperature;BME280_humidity;BME280_pressure;Samples;Min_cycle;Max_cycle;Signal;HPM_P1;HPM_P2
2023/04/07 00:01:53;;;;;;;4.93;3.65;;;11.40;73.50;;;;;;5021824;28;20037;-84
2023/04/07 00:04:19;;;;;;;5.50;4.10;;;11.40;73.60;;;;;;5038349;28;20033;-83
2023/04/07 00:06:45;;;;;;;5.38;4.35;;;11.40;73.60;;;;;;5055821;28;20450;-83
2023/04/07 00:09:11;;;;;;;5.20;4.30;;;11.40;73.60;;;;;;5021105;28;20135;-84
2023/04/07 00:11:37;;;;;;;5.82;4.78;;;11.40;73.60;;;;;;5005448;28;20124;-83
2023/04/07 00:14:03;;;;;;;6.40;5.13;;;11.40;73.60;;;;;;5037480;28;20017;-84
2023/04/07 00:16:29;;;;;;;6.10;5.13;;;11.40;73.60;;;;;;5021221;28;20355;-84
2023/04/07 00:18:55;;;;;;;6.25;5.30;;;11.40;73.60;;;;;;5021431;28;20032;-84
2023/04/07 00:21:21;;;;;;;5.68;4.80;;;11.40;73.60;;;;;;5037722;28;20032;-82
2023/04/07 00:23:47;;;;;;;6.88;5.32;;;11.40;73.60;;;;;;5020588;28;20037;-83
2023/04/07 00:26:13;;;;;;;6.35;5.25;;;11.40;73.70;;;;;;5004505;28;20518;-83
2023/04/07 00:28:42;;;;;;;6.50;5.25;;;11.40;73.70;;;;;;5038049;28;20048;-84
2023/04/07 00:31:08;;;;;;;6.85;5.32;;;11.40;73.70;;;;;;5004773;28;20481;-83
2023/04/07 00:33:34;;;;;;;6.75;5.38;;;11.40;73.60;;;;;;5037623;28;20036;-84
2023/04/07 00:35:59;;;;;;;6.25;5.10;;;11.40;73.60;;;;;;5021682;28;20366;-83
2023/04/07 00:38:25;;;;;;;7.15;5.38;;;11.40;73.70;;;;;;5021621;28;20450;-84
2023/04/07 00:40:59;;;;;;;7.50;5.35;;;11.40;73.70;;;;;;5020925;28;20461;-84
2023/04/07 00:43:26;;;;;;;6.30;4.93;;;11.40;73.70;;;;;;5021731;28;20029;-83
2023/04/07 00:45:53;;;;;;;6.68;5.13;;;11.50;73.70;;;;;;5020802;28;20029;-83
2023/04/07 00:48:19;;;;;;;6.57;5.07;;;11.40;73.70;;;;;;5020754;28;20051;-83
2023/04/07 00:50:45;;;;;;;6.97;5.40;;;11.40;73.70;;;;;;5055065;28;20472;-84
2023/04/07 00:53:12;;;;;;;6.88;5.38;;;11.40;73.70;;;;;;5004532;28;20071;-84
2023/04/07 00:55:37;;;;;;;7.30;5.65;;;11.40;73.80;;;;;;5037824;28;20017;-84
2023/04/07 00:58:04;;;;;;;7.10;5.70;;;11.40;73.70;;;;;;5021415;28;20029;-84
2023/04/07 01:00:37;;;;;;;8.15;6.32;;;11.40;73.80;;;;;;5022875;28;20115;-84
2023/04/07 01:03:14;;;;;;;7.68;5.53;;;11.40;73.80;;;;;;5042947;28;20029;-84
2023/04/07 01:06:00;;;;;;;6.70;5.53;;;11.40;73.80;;;;;;5026202;28;20017;-83
2023/04/07 01:08:37;;;;;;;6.65;5.20;;;11.40;73.80;;;;;;5043454;28;20083;-85
2023/04/07 01:11:09;;;;;;;7.63;6.43;;;11.50;73.90;;;;;;5042086;28;20482;-84
2023/04/07 01:13:41;;;;;;;6.72;5.28;;;11.50;73.90;;;;;;5039234;28;20040;-83
2023/04/07 01:16:36;;;;;;;6.55;5.47;;;11.40;73.90;;;;;;5037232;28;20364;-84
2023/04/07 01:19:38;;;;;;;6.95;5.45;;;11.50;74.00;;;;;;5020773;28;20033;-84
2023/04/07 01:22:11;;;;;;;6.47;5.38;;;11.40;73.90;;;;;;5020972;28;20064;-84
2023/04/07 01:25:02;;;;;;;6.78;5.25;;;11.40;73.90;;;;;;5037044;28;20060;-82
2023/04/07 01:27:34;;;;;;;7.15;5.47;;;11.40;74.00;;;;;;5020517;28;20045;-83
2023/04/07 01:30:02;;;;;;;7.40;5.50;;;11.40;73.90;;;;;;5036408;28;20124;-84
2023/04/07 01:32:30;;;;;;;7.53;5.68;;;11.40;74.00;;;;;;5054514;28;20489;-84
2023/04/07 01:34:58;;;;;;;7.20;5.68;;;11.40;74.10;;;;;;5019886;28;20059;-83
2023/04/07 01:37:26;;;;;;;7.47;5.55;;;11.50;74.10;;;;;;5036691;28;20096;-84
2023/04/07 01:39:52;;;;;;;6.75;5.47;;;11.50;74.10;;;;;;5036484;28;20040;-83
2023/04/07 01:42:19;;;;;;;7.25;5.65;;;11.40;74.10;;;;;;5037180;28;20029;-84
2023/04/07 01:44:46;;;;;;;7.18;5.75;;;11.40;74.10;;;;;;5036891;28;20060;-84
2023/04/07 01:47:14;;;;;;;7.50;5.78;;;11.40;74.10;;;;;;5036733;28;20028;-83
2023/04/07 01:49:40;;;;;;;7.53;5.60;;;11.40;74.10;;;;;;5003585;28;20072;-84
2023/04/07 01:52:09;;;;;;;7.47;5.88;;;11.50;74.20;;;;;;5003548;28;20061;-83
2023/04/07 01:54:36;;;;;;;7.20;5.78;;;11.50;74.20;;;;;;5036100;28;20025;-83
2023/04/07 01:57:01;;;;;;;7.15;5.32;;;11.50;74.20;;;;;;5004164;28;20029;-83
2023/04/07 01:59:28;;;;;;;7.18;5.53;;;11.50;74.20;;;;;;5019581;28;20477;-84
2023/04/07 02:01:55;;;;;;;7.38;5.28;;;11.40;74.20;;;;;;5004029;28;20033;-84
2023/04/07 02:04:31;;;;;;;6.72;5.32;;;11.50;74.20;;;;;;5019644;28;20029;-84
2023/04/07 02:07:20;;;;;;;6.82;5.45;;;11.50;74.30;;;;;;5020074;28;20454;-84
2023/04/07 02:09:50;;;;;;;6.53;5.05;;;11.50;74.30;;;;;;5036362;28;20037;-83
2023/04/07 02:12:16;;;;;;;7.00;5.10;;;11.50;74.20;;;;;;5019664;28;20114;-84
2023/04/07 02:14:55;;;;;;;7.22;4.97;;;11.50;74.20;;;;;;5006248;28;20037;-80
2023/04/07 02:17:23;;;;;;;6.88;5.53;;;11.50;74.20;;;;;;5019008;28;20044;-82
2023/04/07 02:19:52;;;;;;;7.82;5.97;;;11.50;74.20;;;;;;5019106;28;20025;-82
2023/04/07 02:22:18;;;;;;;6.78;5.00;;;11.50;74.20;;;;;;5035852;28;20525;-81
2023/04/07 02:24:44;;;;;;;7.00;5.30;;;11.50;74.20;;;;;;5019485;28;20051;-81
2023/04/07 02:27:10;;;;;;;7.35;5.03;;;11.50;74.20;;;;;;5003033;28;20116;-82
2023/04/07 02:29:36;;;;;;;7.22;5.03;;;11.50;74.20;;;;;;5018998;28;20045;-82
2023/04/07 02:32:01;;;;;;;7.25;5.22;;;11.50;74.20;;;;;;5019818;28;20484;-81
2023/04/07 02:34:28;;;;;;;6.60;5.05;;;11.50;74.20;;;;;;5035560;28;20461;-81
2023/04/07 02:36:54;;;;;;;7.70;5.40;;;11.50;74.30;;;;;;5018850;28;20051;-83
2023/04/07 02:39:20;;;;;;;7.25;5.57;;;11.50;74.30;;;;;;5019002;28;20120;-82
2023/04/07 02:41:46;;;;;;;8.55;5.93;;;11.50;74.20;;;;;;5018755;28;20117;-83
2023/04/07 02:44:12;;;;;;;8.10;5.45;;;11.50;74.20;;;;;;5002322;28;20053;-82
2023/04/07 02:46:37;;;;;;;8.73;6.20;;;11.50;74.30;;;;;;5020944;28;20082;-82
2023/04/07 02:49:03;;;;;;;7.47;5.05;;;11.50;74.30;;;;;;5039171;28;20480;-82
2023/04/07 02:51:30;;;;;;;7.75;5.93;;;11.40;74.20;;;;;;5023416;28;20013;-82
2023/04/07 02:53:56;;;;;;;7.03;5.05;;;11.50;74.20;;;;;;5039188;28;20051;-82
2023/04/07 02:56:22;;;;;;;7.05;5.28;;;11.50;74.30;;;;;;5006024;28;20025;-82
2023/04/07 02:58:48;;;;;;;7.53;5.53;;;11.50;74.20;;;;;;5022681;28;20021;-82
2023/04/07 03:01:15;;;;;;;7.18;5.07;;;11.50;74.20;;;;;;5022707;28;20530;-82
2023/04/07 03:03:43;;;;;;;7.13;5.32;;;11.50;74.20;;;;;;5006381;28;20021;-82
2023/04/07 03:06:14;;;;;;;7.45;5.07;;;11.50;74.80;;;;;;5023128;28;20079;-83
2023/04/07 03:08:59;;;;;;;6.57;4.80;;;11.50;74.20;;;;;;5011936;28;20041;-82
2023/04/07 03:11:28;;;;;;;6.55;4.95;;;11.50;74.10;;;;;;5006665;28;20037;-83
2023/04/07 03:13:56;;;;;;;6.70;4.60;;;11.50;74.20;;;;;;5022449;28;20021;-82
2023/04/07 03:16:22;;;;;;;7.25;5.60;;;11.50;74.20;;;;;;5022278;28;20028;-82
2023/04/07 03:19:02;;;;;;;6.60;4.53;;;11.50;74.20;;;;;;5024545;28;20028;-82
2023/04/07 03:21:31;;;;;;;7.03;5.15;;;11.50;74.20;;;;;;5023521;28;20041;-82
2023/04/07 03:23:57;;;;;;;7.32;5.47;;;11.40;74.10;;;;;;5038495;28;20464;-84
2023/04/07 03:26:23;;;;;;;7.18;5.00;;;11.40;74.10;;;;;;5022709;28;20021;-85
2023/04/07 03:28:49;;;;;;;7.15;4.82;;;11.40;74.20;;;;;;5005329;28;20053;-84
2023/04/07 03:31:16;;;;;;;7.15;4.95;;;11.40;74.10;;;;;;5021814;28;20187;-82
2023/04/07 03:33:43;;;;;;;6.47;4.90;;;11.50;74.20;;;;;;5021732;28;20053;-82
2023/04/07 03:36:09;;;;;;;6.65;5.13;;;11.50;74.20;;;;;;5021909;28;20041;-83
2023/04/07 03:38:35;;;;;;;8.07;5.80;;;11.50;74.80;;;;;;5005617;28;20025;-83
2023/04/07 03:41:04;;;;;;;7.88;5.57;;;11.40;74.10;;;;;;5005888;28;20059;-83
2023/04/07 03:43:29;;;;;;;6.32;5.10;;;11.50;74.20;;;;;;4989080;28;20126;-84
2023/04/07 03:45:55;;;;;;;6.97;5.07;;;11.40;74.20;;;;;;5005779;28;20109;-83
2023/04/07 03:48:23;;;;;;;7.78;5.13;;;11.40;74.20;;;;;;5021669;28;20077;-84
2023/04/07 03:50:59;;;;;;;7.07;5.15;;;11.40;74.20;;;;;;5023548;28;20119;-83
2023/04/07 03:53:25;;;;;;;7.78;5.28;;;11.40;74.20;;;;;;5022011;28;20106;-83
2023/04/07 03:55:52;;;;;;;6.75;4.85;;;11.40;74.20;;;;;;5022293;28;20048;-83
2023/04/07 03:58:36;;;;;;;6.90;5.03;;;11.40;74.20;;;;;;5041108;28;20551;-84
2023/04/07 04:01:04;;;;;;;6.68;4.93;;;11.40;74.50;;;;;;5021766;28;20172;-83
2023/04/07 04:03:30;;;;;;;7.95;5.63;;;11.40;74.20;;;;;;5021962;28;20052;-83
2023/04/07 04:06:06;;;;;;;5.88;4.30;;;11.40;74.80;;;;;;5038448;28;20058;-82
2023/04/07 04:08:32;;;;;;;7.03;4.82;;;11.40;74.20;;;;;;5021841;28;20116;-83
2023/04/07 04:10:58;;;;;;;6.90;5.18;;;11.40;74.20;;;;;;5021633;28;20025;-84
2023/04/07 04:13:30;;;;;;;6.55;4.97;;;11.40;74.20;;;;;;5007014;28;20363;-83
2023/04/07 04:16:00;;;;;;;6.90;5.25;;;11.40;74.20;;;;;;5038512;28;20027;-82
2023/04/07 04:18:25;;;;;;;5.88;4.53;;;11.40;74.10;;;;;;5005155;28;20033;-83
2023/04/07 04:20:53;;;;;;;6.55;4.80;;;11.40;74.20;;;;;;5021695;28;20040;-83
2023/04/07 04:23:19;;;;;;;6.93;4.78;;;11.40;74.20;;;;;;4988559;28;20033;-83
2023/04/07 04:25:45;;;;;;;7.00;5.20;;;11.40;74.20;;;;;;5021920;28;20067;-84
2023/04/07 04:28:12;;;;;;;6.35;4.95;;;11.40;74.20;;;;;;5020837;28;20033;-82
2023/04/07 04:30:39;;;;;;;6.30;4.72;;;11.40;74.20;;;;;;5005318;28;20041;-82
2023/04/07 04:33:06;;;;;;;6.57;4.78;;;11.40;74.20;;;;;;5020617;28;20120;-83
2023/04/07 04:35:54;;;;;;;6.32;4.63;;;11.40;74.20;;;;;;5040181;28;20073;-83
2023/04/07 04:38:21;;;;;;;6.60;5.35;;;11.40;74.20;;;;;;5005329;28;20053;-83
2023/04/07 04:40:54;;;;;;;6.82;4.97;;;11.40;74.20;;;;;;5021342;28;20029;-83
2023/04/07 04:43:25;;;;;;;6.45;4.50;;;11.40;74.20;;;;;;5037757;28;20041;-83
2023/04/07 04:45:52;;;;;;;7.05;5.00;;;11.40;74.20;;;;;;5004277;28;20182;-83
2023/04/07 04:48:21;;;;;;;6.38;4.80;;;11.30;74.10;;;;;;5021276;28;20128;-83
2023/04/07 04:50:47;;;;;;;6.75;4.65;;;11.40;74.20;;;;;;5020229;28;20033;-83
2023/04/07 04:53:14;;;;;;;6.32;4.63;;;11.40;74.20;;;;;;5020885;28;20017;-83
2023/04/07 04:55:52;;;;;;;7.38;5.28;;;11.40;74.20;;;;;;5022788;28;20033;-83
2023/04/07 04:58:21;;;;;;;7.00;5.20;;;11.40;74.20;;;;;;5021607;28;20036;-83
2023/04/07 05:00:59;;;;;;;7.72;5.05;;;11.40;74.20;;;;;;5004782;28;20043;-82
2023/04/07 05:03:33;;;;;;;6.07;4.40;;;11.40;74.20;;;;;;5007213;28;20434;-83
2023/04/07 05:06:03;;;;;;;7.13;5.28;;;11.40;74.20;;;;;;5021478;28;20036;-83
2023/04/07 05:08:30;;;;;;;6.25;4.75;;;11.30;74.10;;;;;;5019734;28;20484;-82
2023/04/07 05:10:57;;;;;;;7.07;4.95;;;11.30;74.10;;;;;;5036697;28;20496;-84
2023/04/07 05:13:26;;;;;;;6.82;4.93;;;11.30;74.20;;;;;;5020821;28;20025;-82
2023/04/07 05:15:53;;;;;;;6.18;5.00;;;11.30;74.20;;;;;;5020532;28;20021;-79
2023/04/07 05:18:19;;;;;;;6.38;4.70;;;11.30;74.20;;;;;;5019911;28;20025;-83
2023/04/07 05:20:48;;;;;;;6.72;4.95;;;11.30;74.20;;;;;;5020646;28;20462;-83
2023/04/07 05:23:13;;;;;;;6.28;4.57;;;11.40;74.30;;;;;;5019607;28;20024;-83
2023/04/07 05:25:40;;;;;;;7.93;4.95;;;11.30;74.20;;;;;;5020197;28;20025;-85
2023/04/07 05:28:07;;;;;;;7.18;5.10;;;11.30;74.20;;;;;;5019833;28;20035;-84
2023/04/07 05:30:33;;;;;;;6.53;4.97;;;11.30;74.20;;;;;;5020172;28;20047;-85
2023/04/07 05:32:59;;;;;;;6.70;5.13;;;11.30;74.20;;;;;;5004222;28;20036;-87
2023/04/07 05:35:45;;;;;;;6.57;4.72;;;11.30;74.20;;;;;;5009627;28;20041;-84
2023/04/07 05:38:12;;;;;;;7.60;5.07;;;11.30;74.20;;;;;;5019778;28;20025;-85
2023/04/07 05:40:40;;;;;;;6.60;4.65;;;11.30;74.30;;;;;;5019469;28;20119;-84
2023/04/07 05:43:09;;;;;;;7.65;5.00;;;11.30;74.30;;;;;;5020880;28;20025;-84
2023/04/07 05:45:35;;;;;;;6.50;4.93;;;11.30;74.30;;;;;;5020546;28;20108;-83
2023/04/07 05:48:01;;;;;;;7.32;4.85;;;11.30;74.20;;;;;;5002896;28;20508;-83
2023/04/07 05:50:42;;;;;;;6.60;4.43;;;11.30;74.30;;;;;;5021303;28;20423;-88
2023/04/07 05:53:11;;;;;;;8.02;4.97;;;11.30;74.30;;;;;;5020355;28;20032;-84
2023/04/07 05:55:41;;;;;;;6.22;4.32;;;11.30;74.30;;;;;;5019488;28;20024;-85
2023/04/07 05:58:10;;;;;;;6.05;4.15;;;11.30;74.30;;;;;;5020106;28;20432;-84
2023/04/07 06:00:37;;;;;;;6.68;4.80;;;11.30;74.30;;;;;;5019615;28;20017;-83
2023/04/07 06:03:09;;;;;;;7.03;5.15;;;11.30;74.30;;;;;;5004998;28;20079;-85
2023/04/07 06:05:47;;;;;;;6.43;4.68;;;11.30;74.30;;;;;;5021409;28;20033;-83
2023/04/07 06:08:13;;;;;;;6.72;4.82;;;11.30;74.30;;;;;;5036684;28;20052;-84
2023/04/07 06:10:40;;;;;;;7.30;5.15;;;11.30;74.40;;;;;;5002854;28;20076;-85
2023/04/07 06:13:06;;;;;;;6.82;5.00;;;11.30;74.40;;;;;;5035857;28;20538;-86
2023/04/07 06:15:32;;;;;;;7.30;4.82;;;11.30;74.40;;;;;;5019557;28;20021;-85
2023/04/07 06:17:58;;;;;;;6.13;4.50;;;11.30;74.40;;;;;;5036619;28;20400;-83
2023/04/07 06:20:26;;;;;;;6.75;4.53;;;11.30;74.40;;;;;;5003863;28;20040;-83
2023/04/07 06:22:53;;;;;;;6.38;4.72;;;11.30;74.40;;;;;;5040373;28;20037;-84
2023/04/07 06:25:20;;;;;;;6.80;4.88;;;11.40;74.40;;;;;;5023629;28;20480;-84
2023/04/07 06:27:45;;;;;;;6.45;4.80;;;11.30;74.40;;;;;;5023103;28;20127;-85
2023/04/07 06:30:14;;;;;;;6.43;4.55;;;11.40;74.50;;;;;;5019627;28;20478;-83
2023/04/07 06:32:40;;;;;;;6.38;4.82;;;11.30;74.40;;;;;;5020233;28;20385;-85
2023/04/07 06:35:07;;;;;;;6.22;4.70;;;11.30;74.40;;;;;;5020219;28;20029;-84
2023/04/07 06:37:32;;;;;;;7.13;4.85;;;11.40;74.50;;;;;;5004394;28;20044;-84
2023/04/07 06:39:59;;;;;;;6.47;4.82;;;11.30;74.40;;;;;;5020738;28;20037;-89
2023/04/07 06:42:24;;;;;;;6.40;4.80;;;11.40;74.50;;;;;;5037215;28;20510;-84
2023/04/07 06:45:03;;;;;;;6.32;4.85;;;11.30;74.50;;;;;;5036209;28;20104;-85
2023/04/07 06:47:32;;;;;;;5.95;4.68;;;11.40;74.50;;;;;;5035447;28;20036;-86
2023/04/07 06:49:58;;;;;;;7.40;4.50;;;11.40;74.60;;;;;;5019614;28;20041;-84
2023/04/07 06:52:24;;;;;;;7.57;5.07;;;11.30;74.50;;;;;;5020689;28;20029;-85
2023/04/07 06:54:50;;;;;;;6.70;4.22;;;11.40;74.60;;;;;;5020099;28;20371;-84
2023/04/07 06:57:16;;;;;;;6.82;5.15;;;11.40;74.60;;;;;;5037078;28;20053;-84
2023/04/07 06:59:45;;;;;;;6.05;4.50;;;11.40;74.60;;;;;;5035898;28;20033;-84
2023/04/07 07:02:10;;;;;;;7.63;4.65;;;11.40;74.60;;;;;;5019387;28;20021;-85
2023/04/07 07:04:36;;;;;;;7.03;4.80;;;11.40;74.60;;;;;;5019143;28;20057;-85
2023/04/07 07:07:02;;;;;;;7.13;4.80;;;11.40;74.60;;;;;;5019143;28;20108;-84
2023/04/07 07:09:28;;;;;;;7.13;4.70;;;11.40;74.60;;;;;;5035721;28;20057;-85
2023/04/07 07:11:54;;;;;;;6.05;4.43;;;11.40;74.60;;;;;;5003223;28;20026;-83
2023/04/07 07:14:20;;;;;;;7.25;4.75;;;11.40;74.60;;;;;;5018889;28;20031;-84
2023/04/07 07:16:46;;;;;;;9.15;4.60;;;11.40;74.60;;;;;;5019970;28;20025;-84
2023/04/07 07:19:13;;;;;;;5.95;4.43;;;11.40;74.70;;;;;;5003048;28;20412;-84
2023/04/07 07:21:39;;;;;;;5.88;4.28;;;11.40;74.60;;;;;;5035823;28;20454;-84
2023/04/07 07:24:05;;;;;;;5.75;4.15;;;11.40;74.60;;;;;;5035863;28;20032;-84
2023/04/07 07:26:31;;;;;;;5.80;4.20;;;11.40;74.70;;;;;;5035336;28;20030;-85
2023/04/07 07:28:57;;;;;;;6.40;4.35;;;11.40;74.70;;;;;;5018998;28;20054;-86
2023/04/07 07:31:23;;;;;;;5.45;4.38;;;11.40;74.70;;;;;;5035004;28;20474;-84
2023/04/07 07:33:50;;;;;;;5.22;4.05;;;11.50;74.70;;;;;;5018815;28;20041;-84
2023/04/07 07:36:16;;;;;;;7.38;4.55;;;11.50;74.70;;;;;;5019402;28;20028;-87
2023/04/07 07:38:42;;;;;;;6.68;4.82;;;11.50;74.70;;;;;;5018550;28;20034;-85
2023/04/07 07:41:08;;;;;;;5.72;4.50;;;11.50;74.70;;;;;;5001867;28;20029;-85
2023/04/07 07:43:35;;;;;;;5.47;3.85;;;11.40;74.70;;;;;;5018636;28;20041;-84
2023/04/07 07:46:02;;;;;;;6.80;4.32;;;11.50;74.70;;;;;;5018575;28;20060;-85
2023/04/07 07:48:28;;;;;;;5.57;3.90;;;11.50;74.80;;;;;;5018360;28;20421;-84
2023/04/07 07:50:55;;;;;;;6.40;4.25;;;11.50;74.80;;;;;;5035044;28;20029;-84
2023/04/07 07:53:21;;;;;;;5.32;4.00;;;11.50;74.70;;;;;;5018487;28;20029;-84
2023/04/07 07:55:48;;;;;;;5.28;3.67;;;11.50;74.70;;;;;;5018627;28;20036;-85
2023/04/07 07:58:14;;;;;;;5.85;3.55;;;11.60;74.80;;;;;;5002273;28;20034;-84
2023/04/07 08:00:42;;;;;;;4.93;3.53;;;11.60;74.80;;;;;;5018855;28;20175;-85
2023/04/07 08:03:08;;;;;;;5.95;4.28;;;11.60;74.70;;;;;;5034962;28;20502;-85
2023/04/07 08:05:34;;;;;;;5.07;3.42;;;11.60;74.70;;;;;;5034780;28;20355;-84
2023/04/07 08:08:00;;;;;;;5.38;3.67;;;11.60;74.70;;;;;;5002001;28;20480;-83
2023/04/07 08:10:26;;;;;;;4.97;3.63;;;11.60;74.70;;;;;;5002929;28;20084;-87
2023/04/07 08:12:52;;;;;;;4.60;3.40;;;11.70;74.70;;;;;;5002060;28;20415;-85
2023/04/07 08:15:26;;;;;;;5.30;3.53;;;11.70;74.70;;;;;;5001966;28;20041;-87
2023/04/07 08:17:55;;;;;;;4.97;3.50;;;11.70;74.70;;;;;;5035287;28;20112;-85
2023/04/07 08:20:22;;;;;;;4.97;3.50;;;11.70;74.60;;;;;;5017967;28;20029;-82
2023/04/07 08:22:48;;;;;;;3.80;2.83;;;11.70;74.60;;;;;;5017759;28;20140;-86
2023/04/07 08:25:14;;;;;;;4.32;3.15;;;11.70;74.60;;;;;;5034446;28;20061;-83
2023/04/07 08:27:40;;;;;;;4.35;3.30;;;11.70;74.60;;;;;;5001497;28;20060;-87
2023/04/07 08:30:06;;;;;;;5.30;3.15;;;11.80;74.70;;;;;;5017242;28;20140;-84
2023/04/07 08:32:37;;;;;;;4.10;2.90;;;11.80;74.70;;;;;;5000802;28;20042;-84
2023/04/07 08:35:03;;;;;;;4.10;3.10;;;11.80;74.70;;;;;;5017466;28;20076;-84
2023/04/07 08:37:30;;;;;;;5.03;3.00;;;11.80;74.60;;;;;;5017360;28;20021;-85
2023/04/07 08:39:56;;;;;;;4.88;3.38;;;11.80;74.60;;;;;;5017161;28;20071;-84
2023/04/07 08:42:27;;;;;;;4.03;3.03;;;11.80;74.60;;;;;;5034553;28;20108;-83
2023/04/07 08:44:57;;;;;;;4.78;2.92;;;11.90;74.60;;;;;;5033856;28;20446;-84
2023/04/07 08:47:26;;;;;;;3.60;2.60;;;11.90;74.60;;;;;;5033415;28;20045;-84
2023/04/07 08:49:56;;;;;;;4.60;3.05;;;11.90;74.60;;;;;;5017099;28;20030;-83
2023/04/07 08:52:27;;;;;;;4.15;2.90;;;11.90;74.50;;;;;;5016997;28;20036;-84
2023/04/07 08:54:54;;;;;;;4.07;2.90;;;11.90;74.50;;;;;;5017249;28;20120;-84
2023/04/07 08:57:20;;;;;;;3.72;2.58;;;11.90;74.50;;;;;;5001611;28;20029;-83
2023/04/07 08:59:50;;;;;;;4.68;3.08;;;12.00;74.50;;;;;;5017014;28;20033;-84
2023/04/07 09:02:17;;;;;;;4.68;3.08;;;12.00;74.50;;;;;;5017153;28;20381;-83
2023/04/07 09:04:44;;;;;;;4.18;3.10;;;12.00;74.50;;;;;;5033302;28;20029;-84
2023/04/07 09:07:10;;;;;;;3.72;2.67;;;12.00;74.50;;;;;;5000318;28;20056;-84
2023/04/07 09:09:35;;;;;;;3.83;2.92;;;12.10;74.60;;;;;;5033813;28;20029;-84
2023/04/07 09:12:01;;;;;;;4.22;2.88;;;12.10;74.50;;;;;;5000358;28;20033;-83
2023/04/07 09:14:27;;;;;;;3.70;2.55;;;12.10;74.50;;;;;;5016615;28;20081;-86
2023/04/07 09:16:54;;;;;;;3.03;2.33;;;12.10;74.50;;;;;;5000719;28;20129;-83
2023/04/07 09:19:26;;;;;;;4.78;3.03;;;12.10;74.50;;;;;;5033360;28;20456;-83
2023/04/07 09:21:52;;;;;;;4.50;2.80;;;12.10;74.50;;;;;;5032865;28;20033;-84
2023/04/07 09:24:24;;;;;;;4.85;3.13;;;12.10;74.50;;;;;;5016939;28;20017;-86
2023/04/07 09:26:50;;;;;;;3.65;2.80;;;12.10;74.40;;;;;;5016808;28;20022;-86
2023/04/07 09:29:28;;;;;;;3.50;2.90;;;12.10;74.40;;;;;;5000809;28;20072;-88
2023/04/07 09:31:58;;;;;;;4.10;2.67;;;12.20;74.50;;;;;;5017798;28;20044;-87
2023/04/07 09:34:26;;;;;;;4.10;2.95;;;12.20;74.40;;;;;;5018171;28;20053;-87
2023/04/07 09:36:53;;;;;;;3.60;2.67;;;12.20;74.40;;;;;;5033871;28;20041;-90
2023/04/07 09:39:26;;;;;;;3.60;2.58;;;12.20;74.40;;;;;;5018603;28;20573;-86
2023/04/07 09:41:52;;;;;;;3.67;2.72;;;12.20;74.40;;;;;;5016940;28;20053;-83
2023/04/07 09:44:22;;;;;;;3.85;2.90;;;12.30;74.40;;;;;;5016583;28;20045;-87
2023/04/07 09:46:56;;;;;;;3.75;2.85;;;12.30;74.40;;;;;;5033515;28;20013;-85
2023/04/07 09:49:51;;;;;;;3.90;3.08;;;12.30;74.50;;;;;;5020281;28;20033;-87
2023/04/07 09:52:19;;;;;;;3.47;2.45;;;12.30;74.40;;;;;;5033960;28;20099;-85
2023/04/07 09:54:46;;;;;;;4.57;3.00;;;12.30;74.30;;;;;;5032427;28;20071;-83
2023/04/07 09:57:17;;;;;;;4.15;2.72;;;12.30;74.30;;;;;;5016747;28;20462;-85
2023/04/07 09:59:47;;;;;;;4.38;3.03;;;12.30;74.40;;;;;;5001546;28;20037;-85
2023/04/07 10:02:16;;;;;;;4.47;2.90;;;12.40;74.40;;;;;;5032569;28;20029;-85
2023/04/07 10:04:42;;;;;;;3.50;2.60;;;12.40;74.40;;;;;;5016131;28;20116;-84
2023/04/07 10:07:08;;;;;;;4.20;2.63;;;12.40;74.30;;;;;;5032320;28;20470;-85
2023/04/07 10:09:34;;;;;;;4.93;2.90;;;12.40;74.30;;;;;;5016016;28;20033;-83
2023/04/07 10:12:00;;;;;;;4.70;3.28;;;12.40;74.30;;;;;;5016247;28;20034;-84
2023/04/07 10:14:31;;;;;;;3.88;2.92;;;12.50;74.40;;;;;;5032977;28;20108;-84
2023/04/07 10:16:59;;;;;;;4.03;2.70;;;12.50;74.40;;;;;;5016123;28;20407;-84
2023/04/07 10:19:28;;;;;;;3.90;2.55;;;12.40;74.30;;;;;;5015835;28;20083;-84
2023/04/07 10:21:55;;;;;;;4.55;2.90;;;12.50;74.30;;;;;;5032181;28;20029;-83
2023/04/07 10:24:48;;;;;;;4.22;2.80;;;12.50;74.30;;;;;;5032060;28;20022;-83
2023/04/07 10:27:21;;;;;;;4.60;2.65;;;12.50;74.30;;;;;;5032627;28;20104;-85
2023/04/07 10:29:52;;;;;;;3.97;2.78;;;12.50;74.20;;;;;;5015670;28;20124;-86
2023/04/07 10:32:18;;;;;;;3.15;2.67;;;12.50;74.20;;;;;;5032628;28;20029;-82
2023/04/07 10:34:52;;;;;;;4.10;2.67;;;12.60;74.30;;;;;;4999604;28;20045;-85
2023/04/07 10:37:22;;;;;;;3.58;2.60;;;12.60;74.30;;;;;;5032378;28;20564;-85
2023/04/07 10:39:50;;;;;;;4.65;3.03;;;12.60;74.30;;;;;;5015769;28;20450;-82
2023/04/07 10:42:37;;;;;;;3.60;2.85;;;12.60;74.30;;;;;;5015841;28;20035;-83
2023/04/07 10:45:08;;;;;;;3.97;2.75;;;12.60;74.30;;;;;;5032041;28;20030;-82
2023/04/07 10:48:00;;;;;;;3.90;2.80;;;12.60;74.30;;;;;;5031804;28;20029;-82
2023/04/07 10:50:27;;;;;;;3.95;2.75;;;12.60;74.30;;;;;;4985489;28;20144;-82
2023/04/07 10:53:09;;;;;;;4.88;2.95;;;12.60;74.20;;;;;;4999231;28;20130;-82
2023/04/07 10:55:37;;;;;;;3.83;2.90;;;12.70;74.40;;;;;;5031967;28;20112;-83
2023/04/07 10:58:15;;;;;;;4.00;2.85;;;12.70;74.30;;;;;;4999091;28;20032;-86
2023/04/07 11:01:02;;;;;;;3.65;2.80;;;12.70;74.30;;;;;;5015164;28;20501;-83
2023/04/07 11:03:30;;;;;;;3.83;2.80;;;12.70;74.30;;;;;;5031333;28;20104;-82
2023/04/07 11:06:07;;;;;;;3.65;2.90;;;12.70;74.30;;;;;;5015343;28;20021;-82
2023/04/07 11:08:36;;;;;;;4.20;2.95;;;12.70;74.30;;;;;;5035338;28;20026;-82
2023/04/07 11:11:09;;;;;;;2.45;2.25;;;12.70;74.30;;;;;;5018654;28;20501;-83
2023/04/07 11:13:41;;;;;;;3.45;2.50;;;12.70;74.30;;;;;;5035542;28;20113;-83
2023/04/07 11:16:07;;;;;;;3.53;2.70;;;12.80;74.30;;;;;;5018930;28;20124;-83
2023/04/07 11:18:35;;;;;;;4.07;2.72;;;12.80;74.30;;;;;;5002205;28;20041;-82
2023/04/07 11:21:02;;;;;;;3.13;2.38;;;12.80;74.30;;;;;;5035342;28;20470;-81
2023/04/07 11:23:28;;;;;;;3.83;2.80;;;12.80;74.30;;;;;;5034859;28;20471;-84
2023/04/07 11:26:01;;;;;;;3.05;2.40;;;12.80;74.30;;;;;;5035351;28;20029;-82
2023/04/07 11:28:28;;;;;;;3.92;2.55;;;12.80;74.30;;;;;;5018550;28;20108;-82
2023/04/07 11:30:55;;;;;;;3.58;2.83;;;12.80;74.20;;;;;;5018506;28;20079;-83
2023/04/07 11:33:25;;;;;;;3.28;2.50;;;12.80;74.20;;;;;;5035024;28;20101;-83
2023/04/07 11:35:59;;;;;;;3.53;2.53;;;12.80;74.20;;;;;;5018671;28;20036;-83
2023/04/07 11:38:33;;;;;;;3.60;2.55;;;12.90;74.30;;;;;;5035026;28;20032;-82
2023/04/07 11:41:12;;;;;;;3.00;2.40;;;12.80;74.20;;;;;;5035053;28;20105;-84
2023/04/07 11:43:40;;;;;;;3.28;2.47;;;12.90;74.20;;;;;;5034981;28;20037;-84
2023/04/07 11:46:17;;;;;;;3.42;2.70;;;12.90;74.20;;;;;;5018292;28;20171;-82
2023/04/07 11:48:44;;;;;;;4.47;2.97;;;12.90;74.20;;;;;;5019088;28;20484;-82
2023/04/07 11:51:18;;;;;;;3.42;2.60;;;12.90;74.20;;;;;;5018367;28;20056;-83
2023/04/07 11:53:45;;;;;;;4.07;2.75;;;13.00;74.30;;;;;;5034791;28;20053;-83
2023/04/07 11:56:16;;;;;;;3.92;2.83;;;13.00;74.20;;;;;;5018221;28;20497;-83
2023/04/07 11:58:49;;;;;;;3.28;2.30;;;13.00;74.20;;;;;;5002137;28;20033;-83
2023/04/07 12:01:15;;;;;;;2.97;2.38;;;13.00;74.20;;;;;;5034519;28;20030;-83
2023/04/07 12:03:57;;;;;;;3.88;2.50;;;13.00;74.20;;;;;;5034750;28;20044;-83
2023/04/07 12:06:34;;;;;;;3.28;2.50;;;13.00;74.20;;;;;;5035151;28;20034;-83
2023/04/07 12:09:04;;;;;;;2.90;2.33;;;13.00;74.10;;;;;;5035243;28;20021;-84
2023/04/07 12:11:31;;;;;;;2.75;2.20;;;13.00;74.10;;;;;;5034346;28;20032;-83
2023/04/07 12:13:57;;;;;;;4.07;2.55;;;13.10;74.10;;;;;;5017744;28;20021;-84
2023/04/07 12:16:24;;;;;;;3.28;2.65;;;13.00;74.10;;;;;;5002324;28;20036;-84
2023/04/07 12:18:53;;;;;;;3.10;2.67;;;13.00;74.10;;;;;;5033153;28;20030;-83
2023/04/07 12:21:19;;;;;;;3.40;2.58;;;13.10;74.10;;;;;;5034491;28;20029;-85
2023/04/07 12:23:46;;;;;;;3.03;2.50;;;13.10;74.10;;;;;;5017866;28;20021;-82
2023/04/07 12:26:12;;;;;;;3.55;2.70;;;13.20;74.20;;;;;;5017436;28;20029;-83
2023/04/07 12:28:38;;;;;;;4.10;2.53;;;13.10;74.10;;;;;;5017706;28;20049;-84
2023/04/07 12:31:04;;;;;;;3.50;2.85;;;13.10;74.10;;;;;;5037721;28;20091;-83
2023/04/07 12:33:31;;;;;;;3.35;2.70;;;13.20;74.80;;;;;;5020441;28;20036;-84
2023/04/07 12:35:57;;;;;;;3.67;2.50;;;13.20;74.10;;;;;;5004121;28;20025;-84
2023/04/07 12:38:23;;;;;;;4.18;2.70;;;13.20;74.10;;;;;;5020470;28;20029;-84
2023/04/07 12:40:49;;;;;;;3.60;2.60;;;13.20;74.10;;;;;;5020661;28;20025;-83
2023/04/07 12:43:15;;;;;;;3.60;2.60;;;13.20;74.10;;;;;;5054925;28;20029;-84
2023/04/07 12:45:41;;;;;;;2.95;2.45;;;13.30;74.10;;;;;;5004146;28;20142;-83
2023/04/07 12:48:08;;;;;;;3.88;2.78;;;13.30;74.10;;;;;;5004290;28;20146;-82
2023/04/07 12:50:36;;;;;;;3.50;2.55;;;13.20;74.10;;;;;;5020900;28;20060;-82
2023/04/07 12:53:04;;;;;;;4.22;2.88;;;13.30;74.00;;;;;;5020711;28;20465;-83
2023/04/07 12:55:34;;;;;;;3.22;2.60;;;13.30;74.00;;;;;;5020540;28;20021;-84
2023/04/07 12:58:00;;;;;;;3.63;2.60;;;13.30;74.10;;;;;;5021156;28;20194;-84